sensor_id;sensor_type;location;lat;lon;timestamp;P1;durP1;ratioP1;P2;durP2;ratioP2
35909;SDS011;22004;49.120;-0.200;2022-08-18T00:01:54;19.77;;;13.35;;
35909;SDS011;22004;49.120;-0.200;2022-08-18T00:04:28;21.40;;;14.48;;
35909;SDS011;22004;49.120;-0.200;2022-08-18T00:06:54;19.98;;;14.05;;
35909;SDS011;22004;49.120;-0.200;2022-08-18T00:09:19;19.23;;;13.57;;
35909;SDS011;22004;49.120;-0.200;2022-08-18T00:11:45;21.10;;;13.95;;
35909;SDS011;22004;49.120;-0.200;2022-08-18T00:14:14;17.20;;;12.80;;
35909;SDS011;22004;49.120;-0.200;2022-08-18T00:16:42;17.92;;;14.07;;
35909;SDS011;22004;49.120;-0.200;2022-08-18T00:19:08;17.85;;;13.07;;
35909;SDS011;22004;49.120;-0.200;2022-08-18T00:21:35;24.10;;;14.38;;
35909;SDS011;22004;49.120;-0.200;2022-08-18T00:24:00;18.75;;;13.30;;
35909;SDS011;22004;49.120;-0.200;2022-08-18T00:26:26;18.42;;;14.13;;
35909;SDS011;22004;49.120;-0.200;2022-08-18T00:28:51;20.65;;;13.50;;
35909;SDS011;22004;49.120;-0.200;2022-08-18T00:31:17;21.83;;;14.65;;
35909;SDS011;22004;49.120;-0.200;2022-08-18T00:33:42;23.33;;;15.70;;
35909;SDS011;22004;49.120;-0.200;2022-08-18T00:36:08;26.15;;;15.15;;
35909;SDS011;22004;49.120;-0.200;2022-08-18T00:38:35;18.02;;;13.13;;
35909;SDS011;22004;49.120;-0.200;2022-08-18T00:41:01;17.95;;;12.07;;
35909;SDS011;22004;49.120;-0.200;2022-08-18T00:46:06;19.55;;;13.70;;
35909;SDS011;22004;49.120;-0.200;2022-08-18T00:48:43;21.70;;;14.13;;
35909;SDS011;22004;49.120;-0.200;2022-08-18T00:51:10;20.50;;;14.02;;
35909;SDS011;22004;49.120;-0.200;2022-08-18T00:53:42;17.23;;;12.02;;
35909;SDS011;22004;49.120;-0.200;2022-08-18T00:56:13;25.95;;;15.30;;
35909;SDS011;22004;49.120;-0.200;2022-08-18T00:58:46;16.45;;;12.82;;
35909;SDS011;22004;49.120;-0.200;2022-08-18T01:01:16;22.90;;;13.25;;
35909;SDS011;22004;49.120;-0.200;2022-08-18T01:03:45;21.67;;;13.90;;
35909;SDS011;22004;49.120;-0.200;2022-08-18T01:06:51;18.00;;;13.52;;
35909;SDS011;22004;49.120;-0.200;2022-08-18T01:09:16;16.67;;;13.05;;
35909;SDS011;22004;49.120;-0.200;2022-08-18T01:11:42;18.73;;;12.90;;
35909;SDS011;22004;49.120;-0.200;2022-08-18T01:14:08;20.73;;;13.20;;
35909;SDS011;22004;49.120;-0.200;2022-08-18T01:16:40;18.38;;;12.93;;
35909;SDS011;22004;49.120;-0.200;2022-08-18T01:19:24;20.60;;;12.20;;
35909;SDS011;22004;49.120;-0.200;2022-08-18T01:22:13;22.83;;;12.30;;
35909;SDS011;22004;49.120;-0.200;2022-08-18T01:24:46;14.35;;;11.85;;
35909;SDS011;22004;49.120;-0.200;2022-08-18T01:27:30;18.10;;;12.80;;
35909;SDS011;22004;49.120;-0.200;2022-08-18T01:29:56;18.67;;;12.35;;
35909;SDS011;22004;49.120;-0.200;2022-08-18T01:32:26;19.05;;;12.07;;
35909;SDS011;22004;49.120;-0.200;2022-08-18T01:34:51;19.10;;;12.88;;
35909;SDS011;22004;49.120;-0.200;2022-08-18T01:37:18;17.60;;;12.60;;
35909;SDS011;22004;49.120;-0.200;2022-08-18T01:39:46;18.85;;;11.80;;
35909;SDS011;22004;49.120;-0.200;2022-08-18T01:42:12;18.42;;;12.40;;
35909;SDS011;22004;49.120;-0.200;2022-08-18T01:44:40;17.80;;;11.98;;
35909;SDS011;22004;49.120;-0.200;2022-08-18T01:47:06;17.02;;;12.18;;
35909;SDS011;22004;49.120;-0.200;2022-08-18T01:49:34;19.67;;;12.60;;
35909;SDS011;22004;49.120;-0.200;2022-08-18T01:52:00;19.25;;;12.00;;
35909;SDS011;22004;49.120;-0.200;2022-08-18T01:54:25;24.17;;;14.63;;
35909;SDS011;22004;49.120;-0.200;2022-08-18T01:56:54;21.10;;;13.23;;
35909;SDS011;22004;49.120;-0.200;2022-08-18T01:59:19;19.33;;;13.13;;
35909;SDS011;22004;49.120;-0.200;2022-08-18T02:01:45;23.38;;;13.32;;
35909;SDS011;22004;49.120;-0.200;2022-08-18T02:04:11;21.88;;;11.85;;
35909;SDS011;22004;49.120;-0.200;2022-08-18T02:06:39;18.83;;;12.13;;
35909;SDS011;22004;49.120;-0.200;2022-08-18T02:09:05;25.40;;;15.20;;
35909;SDS011;22004;49.120;-0.200;2022-08-18T02:11:30;27.17;;;15.32;;
35909;SDS011;22004;49.120;-0.200;2022-08-18T02:13:56;19.13;;;13.13;;
35909;SDS011;22004;49.120;-0.200;2022-08-18T02:16:21;19.85;;;12.38;;
35909;SDS011;22004;49.120;-0.200;2022-08-18T02:18:46;17.88;;;12.85;;
35909;SDS011;22004;49.120;-0.200;2022-08-18T02:21:13;21.60;;;12.13;;
35909;SDS011;22004;49.120;-0.200;2022-08-18T02:23:41;18.48;;;11.85;;
35909;SDS011;22004;49.120;-0.200;2022-08-18T02:26:09;23.25;;;13.70;;
35909;SDS011;22004;49.120;-0.200;2022-08-18T02:28:37;16.23;;;11.48;;
35909;SDS011;22004;49.120;-0.200;2022-08-18T02:31:06;22.00;;;12.70;;
35909;SDS011;22004;49.120;-0.200;2022-08-18T02:33:37;22.35;;;11.32;;
35909;SDS011;22004;49.120;-0.200;2022-08-18T02:36:02;18.95;;;11.02;;
35909;SDS011;22004;49.120;-0.200;2022-08-18T02:38:31;14.30;;;10.57;;
35909;SDS011;22004;49.120;-0.200;2022-08-18T02:40:57;18.33;;;10.68;;
35909;SDS011;22004;49.120;-0.200;2022-08-18T02:43:24;17.63;;;10.48;;
35909;SDS011;22004;49.120;-0.200;2022-08-18T02:45:50;14.38;;;9.68;;
35909;SDS011;22004;49.120;-0.200;2022-08-18T02:48:16;18.63;;;12.32;;
35909;SDS011;22004;49.120;-0.200;2022-08-18T02:50:45;15.57;;;11.18;;
35909;SDS011;22004;49.120;-0.200;2022-08-18T02:53:11;18.02;;;10.88;;
35909;SDS011;22004;49.120;-0.200;2022-08-18T02:55:45;19.73;;;11.35;;
35909;SDS011;22004;49.120;-0.200;2022-08-18T02:58:10;24.13;;;11.30;;
35909;SDS011;22004;49.120;-0.200;2022-08-18T03:00:37;25.05;;;13.57;;
35909;SDS011;22004;49.120;-0.200;2022-08-18T03:03:03;20.67;;;11.25;;
35909;SDS011;22004;49.120;-0.200;2022-08-18T03:05:29;16.58;;;11.05;;
35909;SDS011;22004;49.120;-0.200;2022-08-18T03:07:54;13.77;;;10.73;;
35909;SDS011;22004;49.120;-0.200;2022-08-18T03:10:20;16.48;;;10.88;;
35909;SDS011;22004;49.120;-0.200;2022-08-18T03:12:45;17.35;;;10.93;;
35909;SDS011;22004;49.120;-0.200;2022-08-18T03:15:11;23.73;;;12.63;;
35909;SDS011;22004;49.120;-0.200;2022-08-18T03:17:37;16.98;;;11.02;;
35909;SDS011;22004;49.120;-0.200;2022-08-18T03:20:03;20.45;;;11.60;;
35909;SDS011;22004;49.120;-0.200;2022-08-18T03:22:29;16.50;;;10.23;;
35909;SDS011;22004;49.120;-0.200;2022-08-18T03:24:56;17.42;;;12.30;;
35909;SDS011;22004;49.120;-0.200;2022-08-18T03:27:22;22.70;;;13.65;;
35909;SDS011;22004;49.120;-0.200;2022-08-18T03:29:48;17.70;;;10.98;;
35909;SDS011;22004;49.120;-0.200;2022-08-18T03:32:14;16.65;;;10.38;;
35909;SDS011;22004;49.120;-0.200;2022-08-18T03:34:40;17.90;;;12.10;;
35909;SDS011;22004;49.120;-0.200;2022-08-18T03:37:06;20.10;;;11.27;;
35909;SDS011;22004;49.120;-0.200;2022-08-18T03:39:32;22.73;;;14.25;;
35909;SDS011;22004;49.120;-0.200;2022-08-18T03:41:58;22.60;;;12.57;;
35909;SDS011;22004;49.120;-0.200;2022-08-18T03:44:23;19.92;;;12.40;;
35909;SDS011;22004;49.120;-0.200;2022-08-18T03:46:49;15.45;;;10.43;;
35909;SDS011;22004;49.120;-0.200;2022-08-18T03:49:16;14.38;;;10.43;;
35909;SDS011;22004;49.120;-0.200;2022-08-18T03:51:42;17.85;;;11.93;;
35909;SDS011;22004;49.120;-0.200;2022-08-18T03:54:10;16.30;;;10.60;;
35909;SDS011;22004;49.120;-0.200;2022-08-18T03:56:37;19.60;;;11.48;;
35909;SDS011;22004;49.120;-0.200;2022-08-18T03:59:05;20.35;;;12.60;;
35909;SDS011;22004;49.120;-0.200;2022-08-18T04:01:32;19.63;;;11.75;;
35909;SDS011;22004;49.120;-0.200;2022-08-18T04:04:03;18.05;;;10.88;;
35909;SDS011;22004;49.120;-0.200;2022-08-18T04:06:32;16.88;;;11.35;;
35909;SDS011;22004;49.120;-0.200;2022-08-18T04:09:00;19.25;;;11.15;;
35909;SDS011;22004;49.120;-0.200;2022-08-18T04:11:29;14.20;;;10.40;;
35909;SDS011;22004;49.120;-0.200;2022-08-18T04:13:56;12.90;;;10.52;;
35909;SDS011;22004;49.120;-0.200;2022-08-18T04:16:25;15.88;;;10.43;;
35909;SDS011;22004;49.120;-0.200;2022-08-18T04:18:51;15.70;;;11.50;;
35909;SDS011;22004;49.120;-0.200;2022-08-18T04:21:17;16.15;;;11.02;;
35909;SDS011;22004;49.120;-0.200;2022-08-18T04:23:43;18.45;;;10.75;;
35909;SDS011;22004;49.120;-0.200;2022-08-18T04:26:10;16.90;;;11.00;;
35909;SDS011;22004;49.120;-0.200;2022-08-18T04:28:37;18.25;;;10.95;;
35909;SDS011;22004;49.120;-0.200;2022-08-18T04:31:07;18.25;;;12.15;;
35909;SDS011;22004;49.120;-0.200;2022-08-18T04:33:34;16.73;;;9.77;;
35909;SDS011;22004;49.120;-0.200;2022-08-18T04:36:05;17.95;;;10.70;;
35909;SDS011;22004;49.120;-0.200;2022-08-18T04:38:35;15.98;;;9.95;;
35909;SDS011;22004;49.120;-0.200;2022-08-18T04:41:00;16.13;;;10.63;;
35909;SDS011;22004;49.120;-0.200;2022-08-18T04:43:27;26.33;;;12.82;;
35909;SDS011;22004;49.120;-0.200;2022-08-18T04:45:54;18.02;;;10.45;;
35909;SDS011;22004;49.120;-0.200;2022-08-18T04:48:25;17.42;;;11.27;;
35909;SDS011;22004;49.120;-0.200;2022-08-18T04:50:51;19.98;;;11.70;;
35909;SDS011;22004;49.120;-0.200;2022-08-18T04:53:16;17.92;;;11.55;;
35909;SDS011;22004;49.120;-0.200;2022-08-18T04:56:00;15.57;;;10.75;;
35909;SDS011;22004;49.120;-0.200;2022-08-18T04:58:25;17.13;;;11.25;;
35909;SDS011;22004;49.120;-0.200;2022-08-18T05:00:58;17.60;;;11.57;;
35909;SDS011;22004;49.120;-0.200;2022-08-18T05:03:25;16.95;;;10.30;;
35909;SDS011;22004;49.120;-0.200;2022-08-18T05:05:55;24.45;;;12.27;;
35909;SDS011;22004;49.120;-0.200;2022-08-18T05:08:22;20.23;;;11.55;;
35909;SDS011;22004;49.120;-0.200;2022-08-18T05:10:55;17.92;;;10.35;;
35909;SDS011;22004;49.120;-0.200;2022-08-18T05:13:24;19.40;;;11.75;;
35909;SDS011;22004;49.120;-0.200;2022-08-18T05:15:53;17.77;;;11.05;;
35909;SDS011;22004;49.120;-0.200;2022-08-18T05:18:21;17.77;;;10.50;;
35909;SDS011;22004;49.120;-0.200;2022-08-18T05:20:50;15.73;;;10.20;;
35909;SDS011;22004;49.120;-0.200;2022-08-18T05:23:17;17.83;;;10.15;;
35909;SDS011;22004;49.120;-0.200;2022-08-18T05:25:47;15.77;;;10.65;;
35909;SDS011;22004;49.120;-0.200;2022-08-18T05:28:13;18.85;;;10.75;;
35909;SDS011;22004;49.120;-0.200;2022-08-18T05:30:40;16.02;;;10.10;;
35909;SDS011;22004;49.120;-0.200;2022-08-18T05:33:06;17.48;;;11.15;;
35909;SDS011;22004;49.120;-0.200;2022-08-18T05:35:45;17.25;;;11.05;;
35909;SDS011;22004;49.120;-0.200;2022-08-18T05:43:50;18.60;;;10.65;;
35909;SDS011;22004;49.120;-0.200;2022-08-18T05:46:16;17.33;;;10.25;;
35909;SDS011;22004;49.120;-0.200;2022-08-18T05:48:41;16.13;;;11.15;;
35909;SDS011;22004;49.120;-0.200;2022-08-18T05:51:09;17.52;;;10.18;;
35909;SDS011;22004;49.120;-0.200;2022-08-18T05:53:41;14.65;;;10.35;;
35909;SDS011;22004;49.120;-0.200;2022-08-18T05:56:29;16.88;;;11.35;;
35909;SDS011;22004;49.120;-0.200;2022-08-18T05:59:14;20.90;;;11.88;;
35909;SDS011;22004;49.120;-0.200;2022-08-18T06:01:48;15.77;;;10.70;;
35909;SDS011;22004;49.120;-0.200;2022-08-18T06:07:01;17.35;;;10.82;;
35909;SDS011;22004;49.120;-0.200;2022-08-18T06:14:53;19.27;;;11.55;;
35909;SDS011;22004;49.120;-0.200;2022-08-18T06:20:27;20.10;;;12.85;;
35909;SDS011;22004;49.120;-0.200;2022-08-18T06:23:08;14.88;;;10.70;;
35909;SDS011;22004;49.120;-0.200;2022-08-18T06:28:42;23.80;;;12.43;;
35909;SDS011;22004;49.120;-0.200;2022-08-18T06:34:17;20.90;;;13.20;;
35909;SDS011;22004;49.120;-0.200;2022-08-18T06:39:31;19.80;;;12.00;;
35909;SDS011;22004;49.120;-0.200;2022-08-18T06:42:09;16.73;;;11.07;;
35909;SDS011;22004;49.120;-0.200;2022-08-18T06:44:36;19.75;;;13.55;;
35909;SDS011;22004;49.120;-0.200;2022-08-18T06:47:28;21.52;;;12.98;;
35909;SDS011;22004;49.120;-0.200;2022-08-18T06:50:10;32.22;;;18.20;;
35909;SDS011;22004;49.120;-0.200;2022-08-18T06:52:54;20.88;;;12.73;;
35909;SDS011;22004;49.120;-0.200;2022-08-18T06:58:04;28.38;;;13.00;;
35909;SDS011;22004;49.120;-0.200;2022-08-18T07:03:16;19.70;;;11.93;;
35909;SDS011;22004;49.120;-0.200;2022-08-18T07:06:28;24.92;;;14.25;;
35909;SDS011;22004;49.120;-0.200;2022-08-18T07:08:46;19.50;;;11.80;;
35909;SDS011;22004;49.120;-0.200;2022-08-18T07:13:41;16.53;;;11.17;;
35909;SDS011;22004;49.120;-0.200;2022-08-18T07:16:16;21.40;;;13.43;;
35909;SDS011;22004;49.120;-0.200;2022-08-18T07:18:45;20.33;;;12.60;;
35909;SDS011;22004;49.120;-0.200;2022-08-18T07:21:23;14.50;;;10.57;;
35909;SDS011;22004;49.120;-0.200;2022-08-18T07:24:24;25.17;;;12.90;;
35909;SDS011;22004;49.120;-0.200;2022-08-18T07:27:00;20.48;;;11.82;;
35909;SDS011;22004;49.120;-0.200;2022-08-18T07:29:30;15.20;;;10.80;;
35909;SDS011;22004;49.120;-0.200;2022-08-18T07:31:59;19.92;;;11.77;;
35909;SDS011;22004;49.120;-0.200;2022-08-18T07:34:35;18.27;;;11.57;;
35909;SDS011;22004;49.120;-0.200;2022-08-18T07:39:57;20.60;;;12.68;;
35909;SDS011;22004;49.120;-0.200;2022-08-18T07:42:38;19.80;;;12.68;;
35909;SDS011;22004;49.120;-0.200;2022-08-18T07:45:15;22.63;;;12.82;;
35909;SDS011;22004;49.120;-0.200;2022-08-18T07:47:53;20.90;;;14.07;;
35909;SDS011;22004;49.120;-0.200;2022-08-18T07:50:23;22.63;;;14.23;;
35909;SDS011;22004;49.120;-0.200;2022-08-18T07:56:02;21.05;;;11.75;;
35909;SDS011;22004;49.120;-0.200;2022-08-18T07:58:33;19.48;;;11.90;;
35909;SDS011;22004;49.120;-0.200;2022-08-18T08:06:59;21.73;;;13.48;;
35909;SDS011;22004;49.120;-0.200;2022-08-18T08:09:36;18.05;;;11.45;;
35909;SDS011;22004;49.120;-0.200;2022-08-18T08:12:35;16.30;;;10.40;;
35909;SDS011;22004;49.120;-0.200;2022-08-18T08:18:03;17.13;;;10.52;;
35909;SDS011;22004;49.120;-0.200;2022-08-18T08:20:35;13.07;;;9.63;;
35909;SDS011;22004;49.120;-0.200;2022-08-18T08:23:10;19.33;;;9.73;;
35909;SDS011;22004;49.120;-0.200;2022-08-18T08:25:48;20.80;;;10.05;;
35909;SDS011;22004;49.120;-0.200;2022-08-18T08:31:18;12.82;;;9.25;;
35909;SDS011;22004;49.120;-0.200;2022-08-18T08:33:51;18.60;;;10.45;;
35909;SDS011;22004;49.120;-0.200;2022-08-18T08:36:24;14.27;;;8.85;;
35909;SDS011;22004;49.120;-0.200;2022-08-18T08:38:55;14.15;;;9.13;;
35909;SDS011;22004;49.120;-0.200;2022-08-18T08:41:36;14.98;;;9.43;;
35909;SDS011;22004;49.120;-0.200;2022-08-18T08:44:23;13.20;;;10.00;;
35909;SDS011;22004;49.120;-0.200;2022-08-18T08:49:31;13.52;;;9.07;;
35909;SDS011;22004;49.120;-0.200;2022-08-18T08:52:04;14.00;;;8.85;;
35909;SDS011;22004;49.120;-0.200;2022-08-18T08:54:46;20.02;;;9.55;;
35909;SDS011;22004;49.120;-0.200;2022-08-18T08:57:17;19.88;;;9.90;;
35909;SDS011;22004;49.120;-0.200;2022-08-18T08:59:43;15.70;;;9.68;;
35909;SDS011;22004;49.120;-0.200;2022-08-18T09:10:42;14.50;;;9.48;;
35909;SDS011;22004;49.120;-0.200;2022-08-18T09:23:52;18.02;;;12.02;;
35909;SDS011;22004;49.120;-0.200;2022-08-18T09:29:09;12.57;;;9.45;;
35909;SDS011;22004;49.120;-0.200;2022-08-18T09:31:39;18.02;;;9.48;;
35909;SDS011;22004;49.120;-0.200;2022-08-18T09:34:11;15.43;;;9.88;;
35909;SDS011;22004;49.120;-0.200;2022-08-18T09:36:48;16.73;;;9.77;;
35909;SDS011;22004;49.120;-0.200;2022-08-18T09:39:37;17.48;;;9.73;;
35909;SDS011;22004;49.120;-0.200;2022-08-18T09:52:51;14.48;;;9.05;;
35909;SDS011;22004;49.120;-0.200;2022-08-18T09:57:42;13.87;;;9.27;;
35909;SDS011;22004;49.120;-0.200;2022-08-18T10:07:43;11.53;;;8.83;;
35909;SDS011;22004;49.120;-0.200;2022-08-18T10:23:32;15.38;;;9.52;;
35909;SDS011;22004;49.120;-0.200;2022-08-18T10:28:57;12.90;;;8.25;;
35909;SDS011;22004;49.120;-0.200;2022-08-18T10:31:22;15.57;;;8.88;;
35909;SDS011;22004;49.120;-0.200;2022-08-18T10:36:34;11.23;;;8.35;;
35909;SDS011;22004;49.120;-0.200;2022-08-18T10:39:03;16.08;;;8.77;;
35909;SDS011;22004;49.120;-0.200;2022-08-18T10:41:31;13.43;;;8.75;;
35909;SDS011;22004;49.120;-0.200;2022-08-18T10:43:59;15.48;;;8.15;;
35909;SDS011;22004;49.120;-0.200;2022-08-18T10:46:39;10.70;;;8.00;;
35909;SDS011;22004;49.120;-0.200;2022-08-18T10:51:59;14.93;;;8.07;;
35909;SDS011;22004;49.120;-0.200;2022-08-18T10:57:23;12.02;;;7.78;;
35909;SDS011;22004;49.120;-0.200;2022-08-18T11:05:11;11.05;;;8.23;;
35909;SDS011;22004;49.120;-0.200;2022-08-18T11:07:41;10.85;;;8.18;;
35909;SDS011;22004;49.120;-0.200;2022-08-18T11:10:14;9.98;;;6.60;;
35909;SDS011;22004;49.120;-0.200;2022-08-18T11:26:35;16.23;;;8.25;;
35909;SDS011;22004;49.120;-0.200;2022-08-18T11:29:17;13.88;;;8.15;;
35909;SDS011;22004;49.120;-0.200;2022-08-18T11:31:42;13.88;;;8.48;;
35909;SDS011;22004;49.120;-0.200;2022-08-18T11:34:16;14.10;;;7.55;;
35909;SDS011;22004;49.120;-0.200;2022-08-18T11:36:56;9.73;;;7.45;;
35909;SDS011;22004;49.120;-0.200;2022-08-18T11:39:24;11.00;;;7.70;;
35909;SDS011;22004;49.120;-0.200;2022-08-18T11:41:50;14.63;;;8.00;;
35909;SDS011;22004;49.120;-0.200;2022-08-18T11:44:17;12.15;;;7.22;;
35909;SDS011;22004;49.120;-0.200;2022-08-18T11:46:46;12.60;;;9.10;;
35909;SDS011;22004;49.120;-0.200;2022-08-18T11:49:19;14.93;;;8.60;;
35909;SDS011;22004;49.120;-0.200;2022-08-18T11:52:00;13.60;;;9.45;;
35909;SDS011;22004;49.120;-0.200;2022-08-18T11:54:41;12.43;;;9.15;;
35909;SDS011;22004;49.120;-0.200;2022-08-18T11:59:55;12.40;;;8.48;;
35909;SDS011;22004;49.120;-0.200;2022-08-18T12:02:20;10.38;;;7.35;;
35909;SDS011;22004;49.120;-0.200;2022-08-18T12:04:50;12.57;;;9.05;;
35909;SDS011;22004;49.120;-0.200;2022-08-18T12:07:26;11.55;;;9.13;;
35909;SDS011;22004;49.120;-0.200;2022-08-18T12:12:45;12.80;;;9.38;;
35909;SDS011;22004;49.120;-0.200;2022-08-18T12:17:39;12.70;;;8.13;;
35909;SDS011;22004;49.120;-0.200;2022-08-18T12:20:06;11.95;;;8.43;;
35909;SDS011;22004;49.120;-0.200;2022-08-18T12:22:33;11.32;;;8.23;;
35909;SDS011;22004;49.120;-0.200;2022-08-18T12:25:00;12.93;;;8.93;;
35909;SDS011;22004;49.120;-0.200;2022-08-18T12:27:27;8.50;;;7.50;;
35909;SDS011;22004;49.120;-0.200;2022-08-18T12:29:55;12.82;;;7.70;;
35909;SDS011;22004;49.120;-0.200;2022-08-18T12:32:23;13.43;;;7.93;;
35909;SDS011;22004;49.120;-0.200;2022-08-18T12:34:50;12.15;;;7.45;;
35909;SDS011;22004;49.120;-0.200;2022-08-18T12:37:17;11.43;;;7.82;;
35909;SDS011;22004;49.120;-0.200;2022-08-18T12:39:44;9.65;;;7.38;;
35909;SDS011;22004;49.120;-0.200;2022-08-18T12:42:10;15.60;;;8.23;;
35909;SDS011;22004;49.120;-0.200;2022-08-18T12:44:36;12.10;;;7.72;;
35909;SDS011;22004;49.120;-0.200;2022-08-18T12:47:03;11.95;;;8.20;;
35909;SDS011;22004;49.120;-0.200;2022-08-18T12:49:34;11.88;;;8.07;;
35909;SDS011;22004;49.120;-0.200;2022-08-18T12:52:00;11.00;;;7.13;;
35909;SDS011;22004;49.120;-0.200;2022-08-18T12:54:26;12.98;;;7.35;;
35909;SDS011;22004;49.120;-0.200;2022-08-18T12:56:52;12.15;;;7.00;;
35909;SDS011;22004;49.120;-0.200;2022-08-18T12:59:21;11.63;;;7.53;;
35909;SDS011;22004;49.120;-0.200;2022-08-18T13:01:47;9.45;;;7.00;;
35909;SDS011;22004;49.120;-0.200;2022-08-18T13:04:12;15.30;;;7.85;;
35909;SDS011;22004;49.120;-0.200;2022-08-18T13:06:38;15.02;;;7.55;;
35909;SDS011;22004;49.120;-0.200;2022-08-18T13:09:08;10.95;;;7.28;;
35909;SDS011;22004;49.120;-0.200;2022-08-18T13:11:34;11.77;;;8.13;;
35909;SDS011;22004;49.120;-0.200;2022-08-18T13:13:59;9.93;;;7.03;;
35909;SDS011;22004;49.120;-0.200;2022-08-18T13:16:25;9.70;;;7.78;;
35909;SDS011;22004;49.120;-0.200;2022-08-18T13:18:53;9.98;;;7.82;;
35909;SDS011;22004;49.120;-0.200;2022-08-18T13:21:18;11.43;;;7.43;;
35909;SDS011;22004;49.120;-0.200;2022-08-18T13:23:44;10.93;;;7.68;;
35909;SDS011;22004;49.120;-0.200;2022-08-18T13:26:12;10.25;;;7.60;;
35909;SDS011;22004;49.120;-0.200;2022-08-18T13:28:50;12.77;;;7.68;;
35909;SDS011;22004;49.120;-0.200;2022-08-18T13:31:16;11.48;;;8.32;;
35909;SDS011;22004;49.120;-0.200;2022-08-18T13:33:41;12.93;;;7.35;;
35909;SDS011;22004;49.120;-0.200;2022-08-18T13:36:06;8.75;;;7.65;;
35909;SDS011;22004;49.120;-0.200;2022-08-18T13:38:32;13.68;;;8.05;;
35909;SDS011;22004;49.120;-0.200;2022-08-18T13:40:58;9.77;;;7.50;;
35909;SDS011;22004;49.120;-0.200;2022-08-18T13:43:31;10.35;;;7.50;;
35909;SDS011;22004;49.120;-0.200;2022-08-18T13:46:00;11.02;;;7.90;;
35909;SDS011;22004;49.120;-0.200;2022-08-18T13:48:26;14.27;;;8.02;;
35909;SDS011;22004;49.120;-0.200;2022-08-18T13:50:54;10.23;;;8.00;;
35909;SDS011;22004;49.120;-0.200;2022-08-18T13:53:22;12.93;;;8.23;;
35909;SDS011;22004;49.120;-0.200;2022-08-18T13:55:49;11.57;;;8.35;;
35909;SDS011;22004;49.120;-0.200;2022-08-18T13:58:15;13.88;;;7.82;;
35909;SDS011;22004;49.120;-0.200;2022-08-18T14:00:41;11.98;;;7.93;;
35909;SDS011;22004;49.120;-0.200;2022-08-18T14:03:07;16.80;;;9.50;;
35909;SDS011;22004;49.120;-0.200;2022-08-18T14:05:33;14.32;;;8.73;;
35909;SDS011;22004;49.120;-0.200;2022-08-18T14:07:59;12.75;;;9.35;;
35909;SDS011;22004;49.120;-0.200;2022-08-18T14:10:25;15.88;;;8.50;;
35909;SDS011;22004;49.120;-0.200;2022-08-18T14:12:52;17.65;;;10.07;;
35909;SDS011;22004;49.120;-0.200;2022-08-18T14:15:20;12.50;;;7.97;;
35909;SDS011;22004;49.120;-0.200;2022-08-18T14:17:46;14.13;;;9.55;;
35909;SDS011;22004;49.120;-0.200;2022-08-18T14:20:12;21.30;;;10.57;;
35909;SDS011;22004;49.120;-0.200;2022-08-18T14:22:58;18.25;;;9.43;;
35909;SDS011;22004;49.120;-0.200;2022-08-18T14:25:43;17.70;;;11.23;;
35909;SDS011;22004;49.120;-0.200;2022-08-18T14:28:27;25.42;;;14.85;;
35909;SDS011;22004;49.120;-0.200;2022-08-18T14:30:54;18.88;;;12.25;;
35909;SDS011;22004;49.120;-0.200;2022-08-18T14:33:22;23.85;;;12.50;;
35909;SDS011;22004;49.120;-0.200;2022-08-18T14:35:49;24.30;;;13.18;;
35909;SDS011;22004;49.120;-0.200;2022-08-18T14:38:14;19.17;;;12.93;;
35909;SDS011;22004;49.120;-0.200;2022-08-18T14:40:40;22.85;;;12.10;;
35909;SDS011;22004;49.120;-0.200;2022-08-18T14:43:07;20.00;;;11.55;;
35909;SDS011;22004;49.120;-0.200;2022-08-18T14:45:33;24.48;;;13.20;;
35909;SDS011;22004;49.120;-0.200;2022-08-18T14:47:59;24.95;;;13.30;;
35909;SDS011;22004;49.120;-0.200;2022-08-18T14:50:25;20.02;;;12.13;;
35909;SDS011;22004;49.120;-0.200;2022-08-18T14:52:51;22.05;;;13.52;;
35909;SDS011;22004;49.120;-0.200;2022-08-18T14:55:17;23.15;;;13.00;;
35909;SDS011;22004;49.120;-0.200;2022-08-18T14:57:42;17.65;;;11.70;;
35909;SDS011;22004;49.120;-0.200;2022-08-18T15:00:09;24.17;;;13.40;;
35909;SDS011;22004;49.120;-0.200;2022-08-18T15:02:39;21.00;;;13.50;;
35909;SDS011;22004;49.120;-0.200;2022-08-18T15:05:07;23.75;;;13.40;;
35909;SDS011;22004;49.120;-0.200;2022-08-18T15:07:34;19.02;;;12.07;;
35909;SDS011;22004;49.120;-0.200;2022-08-18T15:10:02;24.33;;;12.77;;
35909;SDS011;22004;49.120;-0.200;2022-08-18T15:12:35;23.23;;;14.23;;
35909;SDS011;22004;49.120;-0.200;2022-08-18T15:15:02;20.38;;;13.52;;
35909;SDS011;22004;49.120;-0.200;2022-08-18T15:17:29;18.63;;;12.98;;
35909;SDS011;22004;49.120;-0.200;2022-08-18T15:19:55;24.88;;;14.98;;
35909;SDS011;22004;49.120;-0.200;2022-08-18T15:22:21;23.08;;;13.80;;
35909;SDS011;22004;49.120;-0.200;2022-08-18T15:25:06;23.58;;;12.65;;
35909;SDS011;22004;49.120;-0.200;2022-08-18T15:27:51;30.13;;;15.70;;
35909;SDS011;22004;49.120;-0.200;2022-08-18T15:30:17;24.65;;;15.00;;
35909;SDS011;22004;49.120;-0.200;2022-08-18T15:32:43;25.23;;;13.48;;
35909;SDS011;22004;49.120;-0.200;2022-08-18T15:35:09;23.88;;;14.05;;
35909;SDS011;22004;49.120;-0.200;2022-08-18T15:37:36;23.08;;;14.70;;
35909;SDS011;22004;49.120;-0.200;2022-08-18T15:40:09;38.22;;;14.57;;
35909;SDS011;22004;49.120;-0.200;2022-08-18T15:42:42;24.60;;;12.98;;
35909;SDS011;22004;49.120;-0.200;2022-08-18T15:45:11;22.67;;;13.10;;
35909;SDS011;22004;49.120;-0.200;2022-08-18T15:47:39;17.85;;;12.50;;
35909;SDS011;22004;49.120;-0.200;2022-08-18T15:50:06;20.15;;;12.82;;
35909;SDS011;22004;49.120;-0.200;2022-08-18T15:52:31;19.98;;;12.32;;
35909;SDS011;22004;49.120;-0.200;2022-08-18T15:54:59;19.67;;;12.32;;
35909;SDS011;22004;49.120;-0.200;2022-08-18T15:57:25;19.63;;;11.70;;
35909;SDS011;22004;49.120;-0.200;2022-08-18T15:59:50;19.15;;;11.52;;
35909;SDS011;22004;49.120;-0.200;2022-08-18T16:02:16;29.00;;;11.20;;
35909;SDS011;22004;49.120;-0.200;2022-08-18T16:04:41;20.55;;;11.20;;
35909;SDS011;22004;49.120;-0.200;2022-08-18T16:07:07;17.58;;;10.45;;
35909;SDS011;22004;49.120;-0.200;2022-08-18T16:09:33;18.70;;;12.20;;
35909;SDS011;22004;49.120;-0.200;2022-08-18T16:11:58;22.88;;;10.32;;
35909;SDS011;22004;49.120;-0.200;2022-08-18T16:14:23;19.58;;;11.30;;
35909;SDS011;22004;49.120;-0.200;2022-08-18T16:16:49;17.45;;;10.55;;
35909;SDS011;22004;49.120;-0.200;2022-08-18T16:19:14;17.95;;;10.55;;
35909;SDS011;22004;49.120;-0.200;2022-08-18T16:21:39;15.02;;;10.25;;
35909;SDS011;22004;49.120;-0.200;2022-08-18T16:24:05;18.70;;;10.80;;
35909;SDS011;22004;49.120;-0.200;2022-08-18T16:26:31;18.95;;;10.93;;
35909;SDS011;22004;49.120;-0.200;2022-08-18T16:28:56;18.92;;;11.02;;
35909;SDS011;22004;49.120;-0.200;2022-08-18T16:31:22;18.63;;;9.52;;
35909;SDS011;22004;49.120;-0.200;2022-08-18T16:33:49;17.58;;;9.95;;
35909;SDS011;22004;49.120;-0.200;2022-08-18T16:36:17;16.92;;;10.43;;
35909;SDS011;22004;49.120;-0.200;2022-08-18T16:38:42;15.73;;;9.88;;
35909;SDS011;22004;49.120;-0.200;2022-08-18T16:41:09;18.17;;;10.65;;
35909;SDS011;22004;49.120;-0.200;2022-08-18T16:43:39;14.50;;;9.95;;
35909;SDS011;22004;49.120;-0.200;2022-08-18T16:46:25;18.42;;;10.70;;
35909;SDS011;22004;49.120;-0.200;2022-08-18T16:48:53;18.60;;;11.00;;
35909;SDS011;22004;49.120;-0.200;2022-08-18T16:51:20;16.42;;;9.90;;
35909;SDS011;22004;49.120;-0.200;2022-08-18T16:53:48;16.40;;;10.05;;
35909;SDS011;22004;49.120;-0.200;2022-08-18T16:56:21;18.15;;;9.00;;
35909;SDS011;22004;49.120;-0.200;2022-08-18T16:58:48;15.90;;;8.02;;